sensor_id;sensor_type;location;lat;lon;timestamp;P1;durP1;ratioP1;P2;durP2;ratioP2
9449;SDS011;4763;48.370;10.874;2023-02-28T02:55:46;3.83;;;3.23;;
9449;SDS011;4763;48.370;10.874;2023-02-28T02:58:40;6.30;;;4.00;;
9449;SDS011;4763;48.370;10.874;2023-02-28T03:01:38;4.67;;;3.60;;
9449;SDS011;4763;48.370;10.874;2023-02-28T03:04:42;8.67;;;3.90;;
9449;SDS011;4763;48.370;10.874;2023-02-28T03:07:38;5.90;;;3.40;;
9449;SDS011;4763;48.370;10.874;2023-02-28T03:16:59;5.60;;;4.17;;
9449;SDS011;4763;48.370;10.874;2023-02-28T03:28:30;6.23;;;3.77;;
9449;SDS011;4763;48.370;10.874;2023-02-28T04:01:25;8.23;;;4.57;;
9449;SDS011;4763;48.370;10.874;2023-02-28T04:04:27;9.93;;;4.97;;
9449;SDS011;4763;48.370;10.874;2023-02-28T04:07:15;9.47;;;4.77;;
9449;SDS011;4763;48.370;10.874;2023-02-28T04:21:37;6.40;;;5.03;;
9449;SDS011;4763;48.370;10.874;2023-02-28T04:24:26;11.90;;;5.00;;
9449;SDS011;4763;48.370;10.874;2023-02-28T04:27:14;7.83;;;4.70;;
9449;SDS011;4763;48.370;10.874;2023-02-28T04:30:04;7.20;;;5.47;;
9449;SDS011;4763;48.370;10.874;2023-02-28T04:32:53;8.33;;;4.87;;
9449;SDS011;4763;48.370;10.874;2023-02-28T04:35:58;8.50;;;5.33;;
9449;SDS011;4763;48.370;10.874;2023-02-28T04:39:07;6.03;;;4.70;;
9449;SDS011;4763;48.370;10.874;2023-02-28T05:11:59;7.70;;;5.13;;
9449;SDS011;4763;48.370;10.874;2023-02-28T05:14:47;7.63;;;5.23;;
9449;SDS011;4763;48.370;10.874;2023-02-28T05:17:36;9.57;;;5.30;;
9449;SDS011;4763;48.370;10.874;2023-02-28T09:58:04;14.43;;;8.27;;
9449;SDS011;4763;48.370;10.874;2023-02-28T10:31:19;13.83;;;8.57;;
9449;SDS011;4763;48.370;10.874;2023-02-28T10:34:12;17.47;;;10.67;;
9449;SDS011;4763;48.370;10.874;2023-02-28T10:37:01;11.30;;;7.87;;
9449;SDS011;4763;48.370;10.874;2023-02-28T10:39:52;12.17;;;8.43;;
9449;SDS011;4763;48.370;10.874;2023-02-28T10:42:42;13.87;;;7.67;;
9449;SDS011;4763;48.370;10.874;2023-02-28T10:45:51;12.83;;;7.80;;
9449;SDS011;4763;48.370;10.874;2023-02-28T10:48:50;12.10;;;7.37;;
9449;SDS011;4763;48.370;10.874;2023-02-28T10:54:27;9.27;;;7.43;;
9449;SDS011;4763;48.370;10.874;2023-02-28T10:57:19;10.67;;;7.50;;
9449;SDS011;4763;48.370;10.874;2023-02-28T11:00:13;11.70;;;7.40;;
9449;SDS011;4763;48.370;10.874;2023-02-28T11:03:02;12.27;;;8.23;;
9449;SDS011;4763;48.370;10.874;2023-02-28T11:06:21;12.90;;;6.97;;
9449;SDS011;4763;48.370;10.874;2023-02-28T11:09:16;11.40;;;7.07;;
9449;SDS011;4763;48.370;10.874;2023-02-28T11:12:21;21.77;;;10.27;;
9449;SDS011;4763;48.370;10.874;2023-02-28T11:15:18;12.30;;;7.07;;
9449;SDS011;4763;48.370;10.874;2023-02-28T11:18:18;10.63;;;7.07;;
9449;SDS011;4763;48.370;10.874;2023-02-28T11:21:09;13.73;;;8.30;;
9449;SDS011;4763;48.370;10.874;2023-02-28T11:24:05;13.43;;;8.70;;
9449;SDS011;4763;48.370;10.874;2023-02-28T11:27:05;11.90;;;7.43;;
9449;SDS011;4763;48.370;10.874;2023-02-28T11:29:55;11.10;;;8.30;;
9449;SDS011;4763;48.370;10.874;2023-02-28T11:32:47;13.80;;;9.07;;
9449;SDS011;4763;48.370;10.874;2023-02-28T11:35:41;12.57;;;7.37;;
9449;SDS011;4763;48.370;10.874;2023-02-28T11:38:29;16.37;;;10.73;;
9449;SDS011;4763;48.370;10.874;2023-02-28T11:41:26;12.23;;;8.47;;
9449;SDS011;4763;48.370;10.874;2023-02-28T11:44:26;14.97;;;9.93;;
9449;SDS011;4763;48.370;10.874;2023-02-28T11:47:26;22.73;;;11.70;;
9449;SDS011;4763;48.370;10.874;2023-02-28T11:50:26;11.93;;;8.27;;
9449;SDS011;4763;48.370;10.874;2023-02-28T11:53:33;12.80;;;8.73;;
9449;SDS011;4763;48.370;10.874;2023-02-28T11:56:39;22.03;;;12.53;;
9449;SDS011;4763;48.370;10.874;2023-02-28T11:59:43;16.77;;;9.57;;
9449;SDS011;4763;48.370;10.874;2023-02-28T12:02:44;13.43;;;7.87;;
9449;SDS011;4763;48.370;10.874;2023-02-28T12:05:44;12.37;;;7.57;;
9449;SDS011;4763;48.370;10.874;2023-02-28T12:08:44;11.50;;;7.97;;
9449;SDS011;4763;48.370;10.874;2023-02-28T12:11:44;11.80;;;8.20;;
9449;SDS011;4763;48.370;10.874;2023-02-28T12:14:46;11.73;;;7.53;;
9449;SDS011;4763;48.370;10.874;2023-02-28T12:17:47;10.97;;;6.77;;
9449;SDS011;4763;48.370;10.874;2023-02-28T12:20:43;11.83;;;8.03;;
9449;SDS011;4763;48.370;10.874;2023-02-28T12:23:44;9.53;;;6.77;;
9449;SDS011;4763;48.370;10.874;2023-02-28T12:26:48;11.80;;;7.33;;
9449;SDS011;4763;48.370;10.874;2023-02-28T12:29:39;10.83;;;8.40;;
9449;SDS011;4763;48.370;10.874;2023-02-28T12:32:30;9.60;;;6.83;;
9449;SDS011;4763;48.370;10.874;2023-02-28T12:35:22;10.03;;;7.27;;
9449;SDS011;4763;48.370;10.874;2023-02-28T12:38:13;14.93;;;8.07;;
9449;SDS011;4763;48.370;10.874;2023-02-28T12:41:05;13.00;;;7.93;;
9449;SDS011;4763;48.370;10.874;2023-02-28T12:44:02;12.57;;;7.87;;
9449;SDS011;4763;48.370;10.874;2023-02-28T12:46:55;11.70;;;7.60;;
9449;SDS011;4763;48.370;10.874;2023-02-28T12:49:48;11.83;;;7.53;;
9449;SDS011;4763;48.370;10.874;2023-02-28T12:52:40;11.27;;;7.80;;
9449;SDS011;4763;48.370;10.874;2023-02-28T12:55:35;13.93;;;8.80;;
9449;SDS011;4763;48.370;10.874;2023-02-28T12:58:30;21.33;;;14.07;;
9449;SDS011;4763;48.370;10.874;2023-02-28T13:01:35;15.73;;;8.47;;
9449;SDS011;4763;48.370;10.874;2023-02-28T13:04:55;13.30;;;8.37;;
9449;SDS011;4763;48.370;10.874;2023-02-28T13:11:27;10.97;;;6.80;;
9449;SDS011;4763;48.370;10.874;2023-02-28T13:14:18;13.27;;;6.93;;
9449;SDS011;4763;48.370;10.874;2023-02-28T13:17:23;9.53;;;7.23;;
9449;SDS011;4763;48.370;10.874;2023-02-28T13:20:14;11.10;;;7.83;;
9449;SDS011;4763;48.370;10.874;2023-02-28T13:23:04;12.60;;;7.73;;
9449;SDS011;4763;48.370;10.874;2023-02-28T13:29:58;10.80;;;7.47;;
9449;SDS011;4763;48.370;10.874;2023-02-28T13:32:51;13.73;;;8.77;;
9449;SDS011;4763;48.370;10.874;2023-02-28T13:36:10;11.07;;;7.17;;
9449;SDS011;4763;48.370;10.874;2023-02-28T13:42:33;9.53;;;6.63;;
9449;SDS011;4763;48.370;10.874;2023-02-28T13:45:23;10.87;;;7.30;;
9449;SDS011;4763;48.370;10.874;2023-02-28T13:48:17;12.70;;;6.97;;
9449;SDS011;4763;48.370;10.874;2023-02-28T13:54:29;10.30;;;6.43;;
9449;SDS011;4763;48.370;10.874;2023-02-28T13:57:31;10.47;;;7.23;;
9449;SDS011;4763;48.370;10.874;2023-02-28T14:00:31;10.60;;;6.27;;
9449;SDS011;4763;48.370;10.874;2023-02-28T14:03:35;10.83;;;6.57;;
9449;SDS011;4763;48.370;10.874;2023-02-28T14:06:35;9.93;;;7.10;;
9449;SDS011;4763;48.370;10.874;2023-02-28T14:09:24;10.97;;;6.77;;
9449;SDS011;4763;48.370;10.874;2023-02-28T14:15:46;9.27;;;6.43;;
9449;SDS011;4763;48.370;10.874;2023-02-28T14:18:37;9.77;;;6.70;;
9449;SDS011;4763;48.370;10.874;2023-02-28T14:21:28;10.80;;;7.00;;
9449;SDS011;4763;48.370;10.874;2023-02-28T14:24:31;8.97;;;6.23;;
9449;SDS011;4763;48.370;10.874;2023-02-28T14:27:44;12.77;;;7.43;;
9449;SDS011;4763;48.370;10.874;2023-02-28T14:30:51;12.90;;;6.87;;
9449;SDS011;4763;48.370;10.874;2023-02-28T14:33:59;9.63;;;5.90;;
9449;SDS011;4763;48.370;10.874;2023-02-28T14:36:57;9.80;;;6.27;;
9449;SDS011;4763;48.370;10.874;2023-02-28T14:40:00;8.43;;;6.40;;
9449;SDS011;4763;48.370;10.874;2023-02-28T14:42:54;9.73;;;6.47;;
9449;SDS011;4763;48.370;10.874;2023-02-28T14:45:42;9.63;;;6.23;;
9449;SDS011;4763;48.370;10.874;2023-02-28T14:48:29;14.47;;;6.83;;
9449;SDS011;4763;48.370;10.874;2023-02-28T14:51:20;9.43;;;6.20;;
9449;SDS011;4763;48.370;10.874;2023-02-28T14:54:12;7.30;;;5.83;;
9449;SDS011;4763;48.370;10.874;2023-02-28T14:57:02;7.80;;;5.90;;
9449;SDS011;4763;48.370;10.874;2023-02-28T14:59:56;9.40;;;6.07;;
9449;SDS011;4763;48.370;10.874;2023-02-28T15:02:45;11.50;;;6.33;;
9449;SDS011;4763;48.370;10.874;2023-02-28T15:05:32;10.80;;;6.70;;
9449;SDS011;4763;48.370;10.874;2023-02-28T15:08:20;8.83;;;5.80;;
9449;SDS011;4763;48.370;10.874;2023-02-28T15:11:07;8.50;;;6.27;;
9449;SDS011;4763;48.370;10.874;2023-02-28T15:14:00;12.03;;;7.03;;
9449;SDS011;4763;48.370;10.874;2023-02-28T15:16:51;12.50;;;7.10;;
9449;SDS011;4763;48.370;10.874;2023-02-28T15:19:42;8.90;;;6.23;;
9449;SDS011;4763;48.370;10.874;2023-02-28T15:22:35;8.80;;;6.40;;
9449;SDS011;4763;48.370;10.874;2023-02-28T15:25:23;10.67;;;6.77;;
9449;SDS011;4763;48.370;10.874;2023-02-28T15:28:13;12.23;;;6.97;;
9449;SDS011;4763;48.370;10.874;2023-02-28T15:31:16;8.77;;;6.23;;
9449;SDS011;4763;48.370;10.874;2023-02-28T15:34:15;9.83;;;7.40;;
9449;SDS011;4763;48.370;10.874;2023-02-28T15:37:23;10.53;;;6.67;;
9449;SDS011;4763;48.370;10.874;2023-02-28T15:40:16;11.13;;;6.77;;
9449;SDS011;4763;48.370;10.874;2023-02-28T15:43:13;11.17;;;6.60;;
9449;SDS011;4763;48.370;10.874;2023-02-28T15:46:02;9.67;;;6.67;;
9449;SDS011;4763;48.370;10.874;2023-02-28T15:48:53;10.37;;;7.17;;
9449;SDS011;4763;48.370;10.874;2023-02-28T15:51:41;11.17;;;6.80;;
9449;SDS011;4763;48.370;10.874;2023-02-28T15:54:29;9.87;;;6.80;;
9449;SDS011;4763;48.370;10.874;2023-02-28T15:57:20;9.20;;;6.60;;
9449;SDS011;4763;48.370;10.874;2023-02-28T16:00:11;10.43;;;7.40;;
9449;SDS011;4763;48.370;10.874;2023-02-28T16:03:01;11.37;;;7.07;;
9449;SDS011;4763;48.370;10.874;2023-02-28T16:09:22;9.53;;;6.30;;
9449;SDS011;4763;48.370;10.874;2023-02-28T16:12:09;10.37;;;7.30;;
9449;SDS011;4763;48.370;10.874;2023-02-28T16:14:59;16.07;;;7.77;;
9449;SDS011;4763;48.370;10.874;2023-02-28T16:17:48;11.30;;;7.30;;
9449;SDS011;4763;48.370;10.874;2023-02-28T16:20:37;11.40;;;7.03;;
9449;SDS011;4763;48.370;10.874;2023-02-28T16:23:24;10.97;;;7.37;;
9449;SDS011;4763;48.370;10.874;2023-02-28T16:26:14;14.47;;;7.87;;
9449;SDS011;4763;48.370;10.874;2023-02-28T16:29:07;15.07;;;7.27;;
9449;SDS011;4763;48.370;10.874;2023-02-28T16:31:55;9.60;;;6.70;;
9449;SDS011;4763;48.370;10.874;2023-02-28T16:34:43;11.97;;;7.43;;
9449;SDS011;4763;48.370;10.874;2023-02-28T16:37:31;11.33;;;7.37;;
9449;SDS011;4763;48.370;10.874;2023-02-28T16:40:19;9.70;;;7.27;;
9449;SDS011;4763;48.370;10.874;2023-02-28T16:43:10;11.83;;;7.20;;
9449;SDS011;4763;48.370;10.874;2023-02-28T16:46:02;12.13;;;7.20;;
9449;SDS011;4763;48.370;10.874;2023-02-28T16:48:50;15.10;;;7.77;;
9449;SDS011;4763;48.370;10.874;2023-02-28T16:51:37;15.53;;;8.63;;
9449;SDS011;4763;48.370;10.874;2023-02-28T16:54:26;12.97;;;8.00;;
9449;SDS011;4763;48.370;10.874;2023-02-28T16:57:16;20.23;;;11.93;;
9449;SDS011;4763;48.370;10.874;2023-02-28T17:00:06;24.27;;;14.83;;
9449;SDS011;4763;48.370;10.874;2023-02-28T17:02:58;14.60;;;8.90;;
9449;SDS011;4763;48.370;10.874;2023-02-28T17:05:45;14.93;;;8.80;;
9449;SDS011;4763;48.370;10.874;2023-02-28T17:08:32;11.53;;;8.50;;
9449;SDS011;4763;48.370;10.874;2023-02-28T17:11:21;12.87;;;8.10;;
9449;SDS011;4763;48.370;10.874;2023-02-28T17:14:09;17.77;;;8.00;;
9449;SDS011;4763;48.370;10.874;2023-02-28T17:16:56;15.87;;;8.53;;
9449;SDS011;4763;48.370;10.874;2023-02-28T17:19:43;14.57;;;9.50;;
9449;SDS011;4763;48.370;10.874;2023-02-28T17:22:30;20.50;;;12.13;;
9449;SDS011;4763;48.370;10.874;2023-02-28T17:25:17;13.90;;;9.93;;
9449;SDS011;4763;48.370;10.874;2023-02-28T17:28:07;14.73;;;8.70;;
9449;SDS011;4763;48.370;10.874;2023-02-28T17:30:55;12.97;;;8.63;;
9449;SDS011;4763;48.370;10.874;2023-02-28T17:33:42;15.27;;;9.17;;
9449;SDS011;4763;48.370;10.874;2023-02-28T17:36:29;14.93;;;8.97;;
9449;SDS011;4763;48.370;10.874;2023-02-28T17:39:19;13.33;;;8.40;;
9449;SDS011;4763;48.370;10.874;2023-02-28T17:42:09;17.80;;;9.60;;
9449;SDS011;4763;48.370;10.874;2023-02-28T17:44:58;17.47;;;10.03;;
9449;SDS011;4763;48.370;10.874;2023-02-28T17:47:46;15.47;;;9.83;;
9449;SDS011;4763;48.370;10.874;2023-02-28T17:50:35;15.17;;;8.63;;
9449;SDS011;4763;48.370;10.874;2023-02-28T17:53:22;15.13;;;9.70;;
9449;SDS011;4763;48.370;10.874;2023-02-28T17:56:11;10.33;;;7.70;;
9449;SDS011;4763;48.370;10.874;2023-02-28T17:59:00;13.23;;;8.57;;
9449;SDS011;4763;48.370;10.874;2023-02-28T18:01:48;17.63;;;10.43;;
9449;SDS011;4763;48.370;10.874;2023-02-28T18:04:35;16.37;;;9.40;;
9449;SDS011;4763;48.370;10.874;2023-02-28T18:07:22;14.33;;;8.40;;
9449;SDS011;4763;48.370;10.874;2023-02-28T18:10:11;15.13;;;9.33;;
9449;SDS011;4763;48.370;10.874;2023-02-28T18:13:04;15.67;;;9.37;;
9449;SDS011;4763;48.370;10.874;2023-02-28T18:15:51;14.00;;;8.93;;
9449;SDS011;4763;48.370;10.874;2023-02-28T18:18:40;14.87;;;9.57;;
9449;SDS011;4763;48.370;10.874;2023-02-28T18:21:28;18.07;;;9.63;;
9449;SDS011;4763;48.370;10.874;2023-02-28T18:24:16;17.97;;;10.83;;
9449;SDS011;4763;48.370;10.874;2023-02-28T18:27:04;16.90;;;10.03;;
9449;SDS011;4763;48.370;10.874;2023-02-28T18:29:51;16.53;;;10.43;;
9449;SDS011;4763;48.370;10.874;2023-02-28T18:32:38;18.10;;;11.30;;
9449;SDS011;4763;48.370;10.874;2023-02-28T18:35:27;15.43;;;9.97;;
9449;SDS011;4763;48.370;10.874;2023-02-28T18:38:20;15.83;;;9.93;;
9449;SDS011;4763;48.370;10.874;2023-02-28T18:41:08;13.93;;;9.00;;
9449;SDS011;4763;48.370;10.874;2023-02-28T18:43:55;14.40;;;8.77;;
9449;SDS011;4763;48.370;10.874;2023-02-28T18:46:42;15.73;;;9.37;;
9449;SDS011;4763;48.370;10.874;2023-02-28T18:49:30;14.07;;;8.40;;
9449;SDS011;4763;48.370;10.874;2023-02-28T18:52:19;15.73;;;8.17;;
9449;SDS011;4763;48.370;10.874;2023-02-28T18:55:07;15.80;;;8.80;;
9449;SDS011;4763;48.370;10.874;2023-02-28T18:57:55;14.80;;;8.23;;
9449;SDS011;4763;48.370;10.874;2023-02-28T19:00:42;14.80;;;8.03;;
9449;SDS011;4763;48.370;10.874;2023-02-28T19:03:29;14.97;;;8.43;;
9449;SDS011;4763;48.370;10.874;2023-02-28T19:06:16;16.23;;;8.07;;
9449;SDS011;4763;48.370;10.874;2023-02-28T19:09:05;14.30;;;9.17;;
9449;SDS011;4763;48.370;10.874;2023-02-28T19:11:52;14.53;;;9.53;;
9449;SDS011;4763;48.370;10.874;2023-02-28T19:14:39;14.33;;;8.40;;
9449;SDS011;4763;48.370;10.874;2023-02-28T19:17:26;14.60;;;8.60;;
9449;SDS011;4763;48.370;10.874;2023-02-28T19:20:13;12.70;;;8.07;;
9449;SDS011;4763;48.370;10.874;2023-02-28T19:23:01;13.77;;;8.03;;
9449;SDS011;4763;48.370;10.874;2023-02-28T19:25:50;12.07;;;8.20;;
9449;SDS011;4763;48.370;10.874;2023-02-28T19:28:37;12.90;;;7.73;;
9449;SDS011;4763;48.370;10.874;2023-02-28T19:31:25;15.70;;;8.47;;
9449;SDS011;4763;48.370;10.874;2023-02-28T19:34:12;17.90;;;9.27;;
9449;SDS011;4763;48.370;10.874;2023-02-28T19:36:59;15.30;;;8.63;;
9449;SDS011;4763;48.370;10.874;2023-02-28T19:39:46;14.93;;;8.23;;
9449;SDS011;4763;48.370;10.874;2023-02-28T19:42:35;20.70;;;9.53;;
9449;SDS011;4763;48.370;10.874;2023-02-28T19:45:22;19.03;;;9.77;;
9449;SDS011;4763;48.370;10.874;2023-02-28T19:48:09;14.83;;;8.87;;
9449;SDS011;4763;48.370;10.874;2023-02-28T19:50:56;14.77;;;8.07;;
9449;SDS011;4763;48.370;10.874;2023-02-28T19:53:43;12.93;;;8.40;;
9449;SDS011;4763;48.370;10.874;2023-02-28T19:56:30;14.93;;;8.60;;
9449;SDS011;4763;48.370;10.874;2023-02-28T19:59:19;13.07;;;9.30;;
9449;SDS011;4763;48.370;10.874;2023-02-28T20:02:09;15.53;;;9.10;;
9449;SDS011;4763;48.370;10.874;2023-02-28T20:04:59;14.47;;;8.37;;
9449;SDS011;4763;48.370;10.874;2023-02-28T20:07:46;16.93;;;8.77;;
9449;SDS011;4763;48.370;10.874;2023-02-28T20:10:33;15.90;;;9.77;;
9449;SDS011;4763;48.370;10.874;2023-02-28T20:13:21;20.53;;;9.37;;
9449;SDS011;4763;48.370;10.874;2023-02-28T20:16:11;12.57;;;8.47;;
9449;SDS011;4763;48.370;10.874;2023-02-28T20:18:59;15.47;;;8.73;;
9449;SDS011;4763;48.370;10.874;2023-02-28T20:21:46;16.20;;;9.20;;
9449;SDS011;4763;48.370;10.874;2023-02-28T20:24:33;16.47;;;9.30;;
9449;SDS011;4763;48.370;10.874;2023-02-28T20:27:21;15.23;;;10.03;;
9449;SDS011;4763;48.370;10.874;2023-02-28T20:30:08;14.27;;;8.77;;
9449;SDS011;4763;48.370;10.874;2023-02-28T20:32:57;14.33;;;9.53;;
9449;SDS011;4763;48.370;10.874;2023-02-28T20:35:44;15.97;;;9.20;;
9449;SDS011;4763;48.370;10.874;2023-02-28T20:38:33;14.27;;;9.93;;
9449;SDS011;4763;48.370;10.874;2023-02-28T20:41:21;14.40;;;8.43;;
9449;SDS011;4763;48.370;10.874;2023-02-28T20:44:10;15.33;;;9.27;;
9449;SDS011;4763;48.370;10.874;2023-02-28T20:46:58;14.20;;;9.30;;
9449;SDS011;4763;48.370;10.874;2023-02-28T20:49:47;16.67;;;10.63;;
9449;SDS011;4763;48.370;10.874;2023-02-28T20:52:34;15.67;;;9.60;;
9449;SDS011;4763;48.370;10.874;2023-02-28T20:55:21;15.57;;;10.30;;
9449;SDS011;4763;48.370;10.874;2023-02-28T20:58:08;16.90;;;10.13;;
9449;SDS011;4763;48.370;10.874;2023-02-28T21:00:59;17.37;;;10.23;;
9449;SDS011;4763;48.370;10.874;2023-02-28T21:03:47;18.40;;;10.10;;
9449;SDS011;4763;48.370;10.874;2023-02-28T21:06:38;20.40;;;9.97;;
9449;SDS011;4763;48.370;10.874;2023-02-28T21:09:27;17.20;;;9.60;;
9449;SDS011;4763;48.370;10.874;2023-02-28T21:12:14;16.43;;;9.47;;
9449;SDS011;4763;48.370;10.874;2023-02-28T21:15:01;16.50;;;10.30;;
9449;SDS011;4763;48.370;10.874;2023-02-28T21:17:49;18.53;;;9.70;;
9449;SDS011;4763;48.370;10.874;2023-02-28T21:20:36;15.87;;;9.57;;
9449;SDS011;4763;48.370;10.874;2023-02-28T21:23:24;20.17;;;10.30;;
9449;SDS011;4763;48.370;10.874;2023-02-28T21:26:12;16.53;;;10.17;;
9449;SDS011;4763;48.370;10.874;2023-02-28T21:29:01;18.30;;;10.57;;
9449;SDS011;4763;48.370;10.874;2023-02-28T21:31:48;14.37;;;8.63;;
9449;SDS011;4763;48.370;10.874;2023-02-28T21:34:36;19.47;;;10.90;;
9449;SDS011;4763;48.370;10.874;2023-02-28T21:37:23;15.60;;;9.53;;
9449;SDS011;4763;48.370;10.874;2023-02-28T21:40:13;16.67;;;9.83;;
9449;SDS011;4763;48.370;10.874;2023-02-28T21:43:00;19.70;;;10.70;;
9449;SDS011;4763;48.370;10.874;2023-02-28T21:45:48;17.03;;;10.10;;
9449;SDS011;4763;48.370;10.874;2023-02-28T21:48:35;19.27;;;10.40;;
9449;SDS011;4763;48.370;10.874;2023-02-28T21:51:23;17.53;;;11.00;;
9449;SDS011;4763;48.370;10.874;2023-02-28T21:54:12;15.13;;;9.20;;
9449;SDS011;4763;48.370;10.874;2023-02-28T21:57:00;17.77;;;10.70;;
9449;SDS011;4763;48.370;10.874;2023-02-28T21:59:47;15.83;;;9.50;;
9449;SDS011;4763;48.370;10.874;2023-02-28T22:02:35;17.87;;;10.40;;
9449;SDS011;4763;48.370;10.874;2023-02-28T22:05:22;16.07;;;10.67;;
9449;SDS011;4763;48.370;10.874;2023-02-28T22:08:09;17.33;;;10.43;;
9449;SDS011;4763;48.370;10.874;2023-02-28T22:11:00;18.73;;;10.00;;
9449;SDS011;4763;48.370;10.874;2023-02-28T22:13:50;14.83;;;10.40;;
9449;SDS011;4763;48.370;10.874;2023-02-28T22:16:38;19.97;;;11.70;;
9449;SDS011;4763;48.370;10.874;2023-02-28T22:19:26;16.47;;;10.50;;
9449;SDS011;4763;48.370;10.874;2023-02-28T22:22:13;19.50;;;11.07;;
9449;SDS011;4763;48.370;10.874;2023-02-28T22:25:00;17.13;;;10.93;;
9449;SDS011;4763;48.370;10.874;2023-02-28T22:27:47;14.90;;;10.27;;
9449;SDS011;4763;48.370;10.874;2023-02-28T22:30:35;19.10;;;11.03;;
9449;SDS011;4763;48.370;10.874;2023-02-28T22:33:23;14.90;;;10.07;;
9449;SDS011;4763;48.370;10.874;2023-02-28T22:36:11;17.70;;;11.50;;
9449;SDS011;4763;48.370;10.874;2023-02-28T22:38:59;24.73;;;12.40;;
9449;SDS011;4763;48.370;10.874;2023-02-28T22:41:46;21.17;;;11.40;;
9449;SDS011;4763;48.370;10.874;2023-02-28T22:44:33;16.87;;;10.77;;
9449;SDS011;4763;48.370;10.874;2023-02-28T22:47:22;16.20;;;11.13;;
9449;SDS011;4763;48.370;10.874;2023-02-28T22:50:10;18.47;;;11.03;;
9449;SDS011;4763;48.370;10.874;2023-02-28T22:52:57;17.30;;;11.20;;
9449;SDS011;4763;48.370;10.874;2023-02-28T22:55:52;19.73;;;12.50;;
9449;SDS011;4763;48.370;10.874;2023-02-28T22:58:40;16.00;;;10.30;;
9449;SDS011;4763;48.370;10.874;2023-02-28T23:01:28;20.27;;;11.50;;
9449;SDS011;4763;48.370;10.874;2023-02-28T23:04:18;21.30;;;12.27;;
9449;SDS011;4763;48.370;10.874;2023-02-28T23:07:05;15.87;;;10.57;;
9449;SDS011;4763;48.370;10.874;2023-02-28T23:09:52;18.20;;;10.37;;
9449;SDS011;4763;48.370;10.874;2023-02-28T23:12:39;20.77;;;12.10;;
9449;SDS011;4763;48.370;10.874;2023-02-28T23:15:34;19.73;;;11.10;;
9449;SDS011;4763;48.370;10.874;2023-02-28T23:18:25;19.20;;;10.80;;
9449;SDS011;4763;48.370;10.874;2023-02-28T23:21:13;19.60;;;11.13;;
9449;SDS011;4763;48.370;10.874;2023-02-28T23:24:00;17.20;;;11.27;;
9449;SDS011;4763;48.370;10.874;2023-02-28T23:26:49;19.53;;;11.90;;
9449;SDS011;4763;48.370;10.874;2023-02-28T23:29:38;18.23;;;11.53;;
9449;SDS011;4763;48.370;10.874;2023-02-28T23:32:26;19.50;;;12.10;;
9449;SDS011;4763;48.370;10.874;2023-02-28T23:35:14;17.77;;;11.23;;
9449;SDS011;4763;48.370;10.874;2023-02-28T23:38:02;23.90;;;11.63;;
9449;SDS011;4763;48.370;10.874;2023-02-28T23:40:49;19.60;;;11.07;;
9449;SDS011;4763;48.370;10.874;2023-02-28T23:43:37;17.63;;;11.53;;
9449;SDS011;4763;48.370;10.874;2023-02-28T23:46:24;21.60;;;12.13;;
9449;SDS011;4763;48.370;10.874;2023-02-28T23:49:12;18.73;;;11.33;;
9449;SDS011;4763;48.370;10.874;2023-02-28T23:52:00;18.50;;;12.60;;
9449;SDS011;4763;48.370;10.874;2023-02-28T23:54:48;18.67;;;11.70;;
9449;SDS011;4763;48.370;10.874;2023-02-28T23:57:35;20.47;;;13.10;;
